Time,TemperatureF,DewpointF,PressureIn,WindDirection,WindDirectionDegrees,WindSpeedMPH,WindSpeedGustMPH,Humidity,HourlyPrecipIn,Conditions,Clouds,dailyrainin,SoftwareType,DateUTC
2013-11-12 00:00:00,30.2,24.8,29.32,NE,41,10.0,12.0,80,0.00,,,0.00,Wunderground v.1.15,2013-11-12 05:00:00,
2013-11-12 00:04:00,30.1,25.0,29.32,NE,55,9.0,12.0,81,0.00,,,0.00,Wunderground v.1.15,2013-11-12 05:04:00,
2013-11-12 00:09:00,30.1,25.0,29.32,NE,43,8.0,8.0,81,0.00,,,0.00,Wunderground v.1.15,2013-11-12 05:09:00,
2013-11-12 00:14:00,29.9,24.5,29.32,NE,40,8.0,9.0,80,0.00,,,0.00,Wunderground v.1.15,2013-11-12 05:14:00,
2013-11-12 00:19:00,29.9,24.5,29.33,NE,49,8.0,8.0,80,0.00,,,0.00,Wunderground v.1.15,2013-11-12 05:19:00,
2013-11-12 00:24:00,29.9,24.5,29.33,NNE,31,8.0,8.0,80,0.00,,,0.00,Wunderground v.1.15,2013-11-12 05:24:00,
2013-11-12 00:29:00,29.9,24.5,29.33,NE,47,8.0,13.0,80,0.00,,,0.00,Wunderground v.1.15,2013-11-12 05:29:00,
2013-11-12 00:35:00,29.8,24.4,29.33,NNE,27,8.0,13.0,80,0.00,,,0.00,Wunderground v.1.15,2013-11-12 05:35:00,
2013-11-12 00:40:00,29.7,24.3,29.33,NE,43,8.0,8.0,80,0.00,,,0.00,Wunderground v.1.15,2013-11-12 05:40:00,
2013-11-12 00:45:00,29.6,24.2,29.33,NE,49,8.0,8.0,80,0.00,,,0.00,Wunderground v.1.15,2013-11-12 05:45:00,
2013-11-12 00:50:00,29.4,24.0,29.33,NE,45,7.0,8.0,80,0.00,,,0.00,Wunderground v.1.15,2013-11-12 05:50:00,
2013-11-12 00:55:00,29.4,24.3,29.34,NE,45,7.0,8.0,81,0.00,,,0.00,Wunderground v.1.15,2013-11-12 05:55:00,
2013-11-12 01:00:00,29.4,24.3,29.34,NE,46,6.0,6.0,81,0.00,,,0.00,Wunderground v.1.15,2013-11-12 06:00:00,
2013-11-12 09:45:00,29.4,26.0,29.53,NE,55,7.0,10.0,87,0.00,,,0.00,Wunderground v.1.15,2013-11-12 14:45:00,
2013-11-12 10:15:00,29.7,26.6,29.53,ENE,59,9.0,19.0,88,0.00,,,0.00,Wunderground v.1.15,2013-11-12 15:15:00,
2013-11-12 10:20:00,30.0,27.2,29.53,NE,36,8.0,8.0,89,0.00,,,0.00,Wunderground v.1.15,2013-11-12 15:20:00,
2013-11-12 10:25:00,30.2,27.3,29.53,NE,34,7.0,9.0,89,0.00,,,0.00,Wunderground v.1.15,2013-11-12 15:25:00,
2013-11-12 10:35:00,30.2,27.1,29.53,ENE,67,10.0,19.0,88,0.00,,,0.00,Wunderground v.1.15,2013-11-12 15:35:00,
2013-11-12 10:40:00,30.4,27.3,29.53,NNE,18,8.0,19.0,88,0.00,,,0.00,Wunderground v.1.15,2013-11-12 15:40:00,
2013-11-12 10:45:00,30.5,27.1,29.53,NNE,32,9.0,19.0,87,0.00,,,0.00,Wunderground v.1.15,2013-11-12 15:45:00,
2013-11-12 10:50:00,30.7,27.0,29.53,NE,52,11.0,11.0,86,0.00,,,0.00,Wunderground v.1.15,2013-11-12 15:50:00,
2013-11-12 10:55:00,30.8,26.8,29.53,NE,54,9.0,19.0,85,0.00,,,0.00,Wunderground v.1.15,2013-11-12 15:55:00,
2013-11-12 11:09:00,31.2,26.3,29.53,NE,34,10.0,19.0,82,0.00,,,0.00,Wunderground v.1.15,2013-11-12 16:09:00,